sensor_id;sensor_type;location;lat;lon;timestamp;P1;durP1;ratioP1;P2;durP2;ratioP2
31206;SDS011;17834;52.992;8.856;2023-09-19T00:02:16;8.52;;;3.80;;
31206;SDS011;17834;52.992;8.856;2023-09-19T00:04:42;7.88;;;3.30;;
31206;SDS011;17834;52.992;8.856;2023-09-19T00:07:08;7.07;;;3.40;;
31206;SDS011;17834;52.992;8.856;2023-09-19T00:09:34;9.77;;;3.17;;
31206;SDS011;17834;52.992;8.856;2023-09-19T00:12:06;11.40;;;3.70;;
31206;SDS011;17834;52.992;8.856;2023-09-19T00:14:34;7.63;;;3.28;;
31206;SDS011;17834;52.992;8.856;2023-09-19T00:17:00;10.23;;;3.35;;
31206;SDS011;17834;52.992;8.856;2023-09-19T00:19:32;9.20;;;3.80;;
31206;SDS011;17834;52.992;8.856;2023-09-19T00:21:58;8.15;;;3.47;;
31206;SDS011;17834;52.992;8.856;2023-09-19T00:24:24;5.60;;;3.10;;
31206;SDS011;17834;52.992;8.856;2023-09-19T00:26:50;7.80;;;3.15;;
31206;SDS011;17834;52.992;8.856;2023-09-19T00:29:16;6.18;;;2.95;;
31206;SDS011;17834;52.992;8.856;2023-09-19T00:31:45;8.85;;;3.47;;
31206;SDS011;17834;52.992;8.856;2023-09-19T00:34:11;6.82;;;3.05;;
31206;SDS011;17834;52.992;8.856;2023-09-19T00:36:37;6.00;;;2.83;;
31206;SDS011;17834;52.992;8.856;2023-09-19T00:39:08;8.70;;;3.00;;
31206;SDS011;17834;52.992;8.856;2023-09-19T00:41:35;9.05;;;3.25;;
31206;SDS011;17834;52.992;8.856;2023-09-19T00:44:01;9.25;;;3.10;;
31206;SDS011;17834;52.992;8.856;2023-09-19T00:46:28;6.38;;;3.17;;
31206;SDS011;17834;52.992;8.856;2023-09-19T00:48:55;7.53;;;3.17;;
31206;SDS011;17834;52.992;8.856;2023-09-19T00:51:21;5.07;;;3.00;;
31206;SDS011;17834;52.992;8.856;2023-09-19T00:53:50;6.50;;;2.75;;
31206;SDS011;17834;52.992;8.856;2023-09-19T00:56:16;7.28;;;3.42;;
31206;SDS011;17834;52.992;8.856;2023-09-19T00:58:43;8.13;;;2.63;;
31206;SDS011;17834;52.992;8.856;2023-09-19T01:01:09;5.00;;;2.58;;
31206;SDS011;17834;52.992;8.856;2023-09-19T01:03:36;5.43;;;3.10;;
31206;SDS011;17834;52.992;8.856;2023-09-19T01:06:03;11.45;;;2.90;;
31206;SDS011;17834;52.992;8.856;2023-09-19T01:08:29;6.93;;;2.80;;
31206;SDS011;17834;52.992;8.856;2023-09-19T01:10:55;5.57;;;2.83;;
31206;SDS011;17834;52.992;8.856;2023-09-19T01:17:09;8.57;;;2.75;;
31206;SDS011;17834;52.992;8.856;2023-09-19T01:26:52;4.57;;;1.52;;
31206;SDS011;17834;52.992;8.856;2023-09-19T01:32:06;4.03;;;1.23;;
31206;SDS011;17834;52.992;8.856;2023-09-19T01:34:48;5.63;;;1.38;;
31206;SDS011;17834;52.992;8.856;2023-09-19T01:37:18;4.03;;;1.27;;
31206;SDS011;17834;52.992;8.856;2023-09-19T01:39:49;4.25;;;1.38;;
31206;SDS011;17834;52.992;8.856;2023-09-19T01:42:21;4.65;;;1.33;;
31206;SDS011;17834;52.992;8.856;2023-09-19T01:44:51;3.38;;;1.13;;
31206;SDS011;17834;52.992;8.856;2023-09-19T01:47:32;2.38;;;1.10;;
31206;SDS011;17834;52.992;8.856;2023-09-19T01:52:31;2.25;;;1.08;;
31206;SDS011;17834;52.992;8.856;2023-09-19T01:55:04;3.92;;;1.10;;
31206;SDS011;17834;52.992;8.856;2023-09-19T02:00:15;4.70;;;1.33;;
31206;SDS011;17834;52.992;8.856;2023-09-19T02:02:44;4.03;;;1.30;;
31206;SDS011;17834;52.992;8.856;2023-09-19T02:05:10;3.50;;;1.20;;
31206;SDS011;17834;52.992;8.856;2023-09-19T02:07:37;5.15;;;0.98;;
31206;SDS011;17834;52.992;8.856;2023-09-19T02:10:05;3.92;;;1.02;;
31206;SDS011;17834;52.992;8.856;2023-09-19T02:12:32;6.78;;;1.05;;
31206;SDS011;17834;52.992;8.856;2023-09-19T02:14:58;5.93;;;1.20;;
31206;SDS011;17834;52.992;8.856;2023-09-19T02:17:24;1.85;;;1.02;;
31206;SDS011;17834;52.992;8.856;2023-09-19T02:19:53;2.75;;;1.20;;
31206;SDS011;17834;52.992;8.856;2023-09-19T02:22:23;4.25;;;1.02;;
31206;SDS011;17834;52.992;8.856;2023-09-19T02:24:49;2.60;;;0.90;;
31206;SDS011;17834;52.992;8.856;2023-09-19T02:27:16;3.42;;;1.20;;
31206;SDS011;17834;52.992;8.856;2023-09-19T02:29:43;7.43;;;1.70;;
31206;SDS011;17834;52.992;8.856;2023-09-19T02:32:09;1.92;;;1.20;;
31206;SDS011;17834;52.992;8.856;2023-09-19T02:34:35;4.53;;;1.08;;
31206;SDS011;17834;52.992;8.856;2023-09-19T02:37:05;2.20;;;1.02;;
31206;SDS011;17834;52.992;8.856;2023-09-19T02:39:31;2.88;;;1.58;;
31206;SDS011;17834;52.992;8.856;2023-09-19T02:41:57;3.97;;;1.27;;
31206;SDS011;17834;52.992;8.856;2023-09-19T02:44:23;3.42;;;1.50;;
31206;SDS011;17834;52.992;8.856;2023-09-19T02:46:49;3.28;;;1.05;;
31206;SDS011;17834;52.992;8.856;2023-09-19T02:49:15;4.97;;;1.10;;
31206;SDS011;17834;52.992;8.856;2023-09-19T02:51:43;5.03;;;1.27;;
31206;SDS011;17834;52.992;8.856;2023-09-19T02:54:08;4.72;;;0.93;;
31206;SDS011;17834;52.992;8.856;2023-09-19T02:56:35;4.18;;;1.10;;
31206;SDS011;17834;52.992;8.856;2023-09-19T02:59:00;4.22;;;1.60;;
31206;SDS011;17834;52.992;8.856;2023-09-19T03:01:26;4.32;;;1.30;;
31206;SDS011;17834;52.992;8.856;2023-09-19T03:03:53;7.38;;;1.52;;
31206;SDS011;17834;52.992;8.856;2023-09-19T03:06:19;4.72;;;1.08;;
31206;SDS011;17834;52.992;8.856;2023-09-19T03:08:46;3.10;;;1.27;;
31206;SDS011;17834;52.992;8.856;2023-09-19T03:11:13;3.78;;;1.30;;
31206;SDS011;17834;52.992;8.856;2023-09-19T03:13:41;2.83;;;1.38;;
31206;SDS011;17834;52.992;8.856;2023-09-19T03:16:07;6.78;;;1.45;;
31206;SDS011;17834;52.992;8.856;2023-09-19T03:18:34;3.88;;;1.33;;
31206;SDS011;17834;52.992;8.856;2023-09-19T03:21:00;6.43;;;1.67;;
31206;SDS011;17834;52.992;8.856;2023-09-19T03:23:26;3.38;;;1.27;;
31206;SDS011;17834;52.992;8.856;2023-09-19T03:25:56;4.03;;;1.38;;
31206;SDS011;17834;52.992;8.856;2023-09-19T03:28:23;8.13;;;2.08;;
31206;SDS011;17834;52.992;8.856;2023-09-19T03:30:59;7.18;;;1.80;;
31206;SDS011;17834;52.992;8.856;2023-09-19T03:35:52;3.28;;;1.15;;
31206;SDS011;17834;52.992;8.856;2023-09-19T03:38:18;4.78;;;1.70;;
31206;SDS011;17834;52.992;8.856;2023-09-19T03:40:44;5.65;;;2.03;;
31206;SDS011;17834;52.992;8.856;2023-09-19T03:43:10;5.22;;;1.52;;
31206;SDS011;17834;52.992;8.856;2023-09-19T03:45:36;6.85;;;2.13;;
31206;SDS011;17834;52.992;8.856;2023-09-19T03:48:07;5.18;;;2.30;;
31206;SDS011;17834;52.992;8.856;2023-09-19T03:50:33;7.68;;;1.80;;
31206;SDS011;17834;52.992;8.856;2023-09-19T03:52:59;4.97;;;2.03;;
31206;SDS011;17834;52.992;8.856;2023-09-19T03:55:25;7.57;;;1.63;;
31206;SDS011;17834;52.992;8.856;2023-09-19T03:57:51;3.95;;;1.90;;
31206;SDS011;17834;52.992;8.856;2023-09-19T04:00:18;7.10;;;1.88;;
31206;SDS011;17834;52.992;8.856;2023-09-19T04:02:46;7.18;;;1.92;;
31206;SDS011;17834;52.992;8.856;2023-09-19T04:05:12;11.48;;;2.45;;
31206;SDS011;17834;52.992;8.856;2023-09-19T04:07:38;7.47;;;1.90;;
31206;SDS011;17834;52.992;8.856;2023-09-19T04:10:05;6.97;;;2.00;;
31206;SDS011;17834;52.992;8.856;2023-09-19T04:12:33;8.50;;;2.25;;
31206;SDS011;17834;52.992;8.856;2023-09-19T04:14:59;10.73;;;2.20;;
31206;SDS011;17834;52.992;8.856;2023-09-19T04:17:25;7.70;;;2.03;;
31206;SDS011;17834;52.992;8.856;2023-09-19T04:19:51;10.40;;;2.85;;
31206;SDS011;17834;52.992;8.856;2023-09-19T04:22:18;7.18;;;2.13;;
31206;SDS011;17834;52.992;8.856;2023-09-19T04:24:44;8.07;;;2.33;;
31206;SDS011;17834;52.992;8.856;2023-09-19T04:27:10;11.82;;;2.13;;
31206;SDS011;17834;52.992;8.856;2023-09-19T04:29:39;6.90;;;2.17;;
31206;SDS011;17834;52.992;8.856;2023-09-19T04:32:06;9.45;;;3.33;;
31206;SDS011;17834;52.992;8.856;2023-09-19T04:34:32;5.25;;;2.25;;
31206;SDS011;17834;52.992;8.856;2023-09-19T04:36:59;6.28;;;2.03;;
31206;SDS011;17834;52.992;8.856;2023-09-19T04:39:25;5.78;;;1.70;;
31206;SDS011;17834;52.992;8.856;2023-09-19T04:41:52;7.80;;;2.20;;
31206;SDS011;17834;52.992;8.856;2023-09-19T04:44:18;8.40;;;2.40;;
31206;SDS011;17834;52.992;8.856;2023-09-19T04:46:44;6.35;;;2.10;;
31206;SDS011;17834;52.992;8.856;2023-09-19T04:49:13;11.98;;;3.83;;
31206;SDS011;17834;52.992;8.856;2023-09-19T04:51:39;8.38;;;2.63;;
31206;SDS011;17834;52.992;8.856;2023-09-19T04:54:05;11.45;;;2.28;;
31206;SDS011;17834;52.992;8.856;2023-09-19T04:56:31;5.20;;;2.03;;
31206;SDS011;17834;52.992;8.856;2023-09-19T04:58:58;15.48;;;3.80;;
31206;SDS011;17834;52.992;8.856;2023-09-19T05:01:25;9.60;;;2.38;;
31206;SDS011;17834;52.992;8.856;2023-09-19T05:03:51;9.07;;;2.10;;
31206;SDS011;17834;52.992;8.856;2023-09-19T05:06:18;8.95;;;2.47;;
31206;SDS011;17834;52.992;8.856;2023-09-19T05:08:46;13.30;;;2.03;;
31206;SDS011;17834;52.992;8.856;2023-09-19T05:11:15;12.45;;;2.53;;
31206;SDS011;17834;52.992;8.856;2023-09-19T05:13:41;5.75;;;1.85;;
31206;SDS011;17834;52.992;8.856;2023-09-19T05:16:08;10.75;;;2.33;;
31206;SDS011;17834;52.992;8.856;2023-09-19T05:18:35;5.22;;;2.03;;
31206;SDS011;17834;52.992;8.856;2023-09-19T05:21:04;8.60;;;2.08;;
31206;SDS011;17834;52.992;8.856;2023-09-19T05:23:30;7.18;;;1.90;;
31206;SDS011;17834;52.992;8.856;2023-09-19T05:25:56;4.38;;;2.00;;
31206;SDS011;17834;52.992;8.856;2023-09-19T05:28:25;6.82;;;2.28;;
31206;SDS011;17834;52.992;8.856;2023-09-19T05:30:51;8.27;;;2.05;;
31206;SDS011;17834;52.992;8.856;2023-09-19T05:33:18;8.80;;;2.28;;
31206;SDS011;17834;52.992;8.856;2023-09-19T05:35:44;6.20;;;2.25;;
31206;SDS011;17834;52.992;8.856;2023-09-19T05:38:12;6.10;;;1.90;;
31206;SDS011;17834;52.992;8.856;2023-09-19T05:40:38;12.52;;;2.10;;
31206;SDS011;17834;52.992;8.856;2023-09-19T05:43:07;6.15;;;2.60;;
31206;SDS011;17834;52.992;8.856;2023-09-19T05:45:33;10.43;;;2.10;;
31206;SDS011;17834;52.992;8.856;2023-09-19T05:48:06;12.85;;;2.20;;
31206;SDS011;17834;52.992;8.856;2023-09-19T05:50:33;8.38;;;2.50;;
31206;SDS011;17834;52.992;8.856;2023-09-19T05:52:59;9.00;;;2.17;;
31206;SDS011;17834;52.992;8.856;2023-09-19T05:55:24;7.05;;;1.85;;
31206;SDS011;17834;52.992;8.856;2023-09-19T05:57:51;7.88;;;2.10;;
31206;SDS011;17834;52.992;8.856;2023-09-19T06:00:21;7.18;;;1.83;;
31206;SDS011;17834;52.992;8.856;2023-09-19T06:02:51;5.28;;;2.13;;
31206;SDS011;17834;52.992;8.856;2023-09-19T06:05:17;4.60;;;2.08;;
31206;SDS011;17834;52.992;8.856;2023-09-19T06:07:43;6.25;;;2.10;;
31206;SDS011;17834;52.992;8.856;2023-09-19T06:10:09;8.43;;;2.08;;
31206;SDS011;17834;52.992;8.856;2023-09-19T06:12:39;9.45;;;2.30;;
31206;SDS011;17834;52.992;8.856;2023-09-19T06:15:05;14.27;;;2.90;;
31206;SDS011;17834;52.992;8.856;2023-09-19T06:17:33;7.03;;;1.75;;
31206;SDS011;17834;52.992;8.856;2023-09-19T06:20:02;13.60;;;2.75;;
31206;SDS011;17834;52.992;8.856;2023-09-19T06:22:29;15.15;;;2.60;;
31206;SDS011;17834;52.992;8.856;2023-09-19T06:24:55;15.23;;;2.50;;
31206;SDS011;17834;52.992;8.856;2023-09-19T06:27:21;13.85;;;2.67;;
31206;SDS011;17834;52.992;8.856;2023-09-19T06:29:47;9.20;;;2.30;;
31206;SDS011;17834;52.992;8.856;2023-09-19T06:32:13;10.07;;;2.08;;
31206;SDS011;17834;52.992;8.856;2023-09-19T06:34:39;9.68;;;1.80;;
31206;SDS011;17834;52.992;8.856;2023-09-19T06:37:08;9.52;;;1.85;;
31206;SDS011;17834;52.992;8.856;2023-09-19T06:39:34;9.13;;;1.85;;
31206;SDS011;17834;52.992;8.856;2023-09-19T06:42:00;18.23;;;2.38;;
31206;SDS011;17834;52.992;8.856;2023-09-19T06:44:26;9.43;;;2.90;;
31206;SDS011;17834;52.992;8.856;2023-09-19T06:46:54;7.85;;;1.85;;
31206;SDS011;17834;52.992;8.856;2023-09-19T06:49:20;7.35;;;1.92;;
31206;SDS011;17834;52.992;8.856;2023-09-19T06:51:46;8.73;;;1.92;;
31206;SDS011;17834;52.992;8.856;2023-09-19T06:54:12;6.85;;;1.30;;
31206;SDS011;17834;52.992;8.856;2023-09-19T06:56:38;5.70;;;1.52;;
31206;SDS011;17834;52.992;8.856;2023-09-19T06:59:04;8.32;;;1.52;;
31206;SDS011;17834;52.992;8.856;2023-09-19T07:01:32;5.18;;;1.35;;
31206;SDS011;17834;52.992;8.856;2023-09-19T07:03:58;10.20;;;1.50;;
31206;SDS011;17834;52.992;8.856;2023-09-19T07:06:24;6.55;;;1.35;;
31206;SDS011;17834;52.992;8.856;2023-09-19T07:08:50;7.95;;;2.13;;
31206;SDS011;17834;52.992;8.856;2023-09-19T07:11:16;6.80;;;2.17;;
31206;SDS011;17834;52.992;8.856;2023-09-19T07:13:42;11.02;;;2.25;;
31206;SDS011;17834;52.992;8.856;2023-09-19T07:16:08;8.27;;;1.42;;
31206;SDS011;17834;52.992;8.856;2023-09-19T07:18:52;11.43;;;1.73;;
31206;SDS011;17834;52.992;8.856;2023-09-19T07:21:18;20.58;;;2.08;;
31206;SDS011;17834;52.992;8.856;2023-09-19T07:23:43;6.68;;;1.15;;
31206;SDS011;17834;52.992;8.856;2023-09-19T07:26:09;6.10;;;1.30;;
31206;SDS011;17834;52.992;8.856;2023-09-19T07:28:35;8.77;;;2.10;;
31206;SDS011;17834;52.992;8.856;2023-09-19T07:31:02;5.93;;;1.90;;
31206;SDS011;17834;52.992;8.856;2023-09-19T07:33:29;8.50;;;1.30;;
31206;SDS011;17834;52.992;8.856;2023-09-19T07:35:56;10.07;;;1.38;;
31206;SDS011;17834;52.992;8.856;2023-09-19T07:38:22;8.95;;;1.30;;
31206;SDS011;17834;52.992;8.856;2023-09-19T07:40:48;11.30;;;1.60;;
31206;SDS011;17834;52.992;8.856;2023-09-19T07:43:14;10.30;;;1.75;;
31206;SDS011;17834;52.992;8.856;2023-09-19T07:45:40;6.22;;;1.23;;
31206;SDS011;17834;52.992;8.856;2023-09-19T07:48:06;4.72;;;1.33;;
31206;SDS011;17834;52.992;8.856;2023-09-19T07:50:39;4.35;;;1.13;;
31206;SDS011;17834;52.992;8.856;2023-09-19T07:53:05;4.55;;;1.40;;
31206;SDS011;17834;52.992;8.856;2023-09-19T07:55:31;4.95;;;1.08;;
31206;SDS011;17834;52.992;8.856;2023-09-19T07:57:58;6.22;;;1.45;;
31206;SDS011;17834;52.992;8.856;2023-09-19T08:00:25;5.57;;;1.85;;
31206;SDS011;17834;52.992;8.856;2023-09-19T08:02:51;3.42;;;1.00;;
31206;SDS011;17834;52.992;8.856;2023-09-19T08:05:17;12.48;;;1.48;;
31206;SDS011;17834;52.992;8.856;2023-09-19T08:07:44;8.38;;;1.63;;
31206;SDS011;17834;52.992;8.856;2023-09-19T08:10:14;5.20;;;1.25;;
31206;SDS011;17834;52.992;8.856;2023-09-19T08:12:40;8.82;;;1.50;;
31206;SDS011;17834;52.992;8.856;2023-09-19T08:15:13;8.50;;;1.50;;
31206;SDS011;17834;52.992;8.856;2023-09-19T08:17:39;9.43;;;1.63;;
31206;SDS011;17834;52.992;8.856;2023-09-19T08:20:06;8.63;;;1.42;;
31206;SDS011;17834;52.992;8.856;2023-09-19T08:22:32;5.32;;;1.00;;
31206;SDS011;17834;52.992;8.856;2023-09-19T08:24:58;8.18;;;1.00;;
31206;SDS011;17834;52.992;8.856;2023-09-19T08:27:24;6.75;;;1.50;;
31206;SDS011;17834;52.992;8.856;2023-09-19T08:29:53;4.78;;;1.08;;
31206;SDS011;17834;52.992;8.856;2023-09-19T08:32:19;8.10;;;1.50;;
31206;SDS011;17834;52.992;8.856;2023-09-19T08:34:49;4.82;;;1.10;;
31206;SDS011;17834;52.992;8.856;2023-09-19T08:37:15;10.38;;;1.55;;
31206;SDS011;17834;52.992;8.856;2023-09-19T08:39:43;9.30;;;1.10;;
31206;SDS011;17834;52.992;8.856;2023-09-19T08:42:09;8.73;;;1.33;;
31206;SDS011;17834;52.992;8.856;2023-09-19T08:44:37;4.10;;;1.17;;
31206;SDS011;17834;52.992;8.856;2023-09-19T08:47:15;7.10;;;1.30;;
31206;SDS011;17834;52.992;8.856;2023-09-19T08:52:22;5.13;;;1.13;;
31206;SDS011;17834;52.992;8.856;2023-09-19T08:54:51;7.07;;;1.10;;
31206;SDS011;17834;52.992;8.856;2023-09-19T08:57:18;3.70;;;1.20;;
31206;SDS011;17834;52.992;8.856;2023-09-19T08:59:47;6.55;;;1.23;;
31206;SDS011;17834;52.992;8.856;2023-09-19T09:02:14;5.88;;;1.30;;
31206;SDS011;17834;52.992;8.856;2023-09-19T09:04:43;7.78;;;1.48;;
31206;SDS011;17834;52.992;8.856;2023-09-19T09:07:10;8.75;;;1.20;;
31206;SDS011;17834;52.992;8.856;2023-09-19T09:09:37;9.38;;;1.58;;
31206;SDS011;17834;52.992;8.856;2023-09-19T09:12:07;7.07;;;1.15;;
31206;SDS011;17834;52.992;8.856;2023-09-19T09:14:33;6.10;;;1.20;;
31206;SDS011;17834;52.992;8.856;2023-09-19T09:16:59;5.97;;;1.13;;
31206;SDS011;17834;52.992;8.856;2023-09-19T09:19:26;9.55;;;1.45;;
31206;SDS011;17834;52.992;8.856;2023-09-19T09:21:52;6.25;;;1.45;;
31206;SDS011;17834;52.992;8.856;2023-09-19T09:24:27;6.78;;;0.90;;
31206;SDS011;17834;52.992;8.856;2023-09-19T09:26:54;7.32;;;1.20;;
31206;SDS011;17834;52.992;8.856;2023-09-19T09:32:24;4.20;;;1.02;;
31206;SDS011;17834;52.992;8.856;2023-09-19T09:34:57;4.50;;;1.10;;
31206;SDS011;17834;52.992;8.856;2023-09-19T09:37:24;2.58;;;1.00;;
31206;SDS011;17834;52.992;8.856;2023-09-19T09:39:55;5.72;;;1.58;;
31206;SDS011;17834;52.992;8.856;2023-09-19T09:42:33;6.75;;;1.00;;
31206;SDS011;17834;52.992;8.856;2023-09-19T09:45:19;7.32;;;1.40;;
31206;SDS011;17834;52.992;8.856;2023-09-19T09:47:58;4.78;;;0.90;;
31206;SDS011;17834;52.992;8.856;2023-09-19T09:53:20;8.85;;;1.70;;
31206;SDS011;17834;52.992;8.856;2023-09-19T09:56:03;6.55;;;1.00;;
31206;SDS011;17834;52.992;8.856;2023-09-19T09:58:32;4.72;;;1.13;;
31206;SDS011;17834;52.992;8.856;2023-09-19T10:01:00;9.50;;;1.40;;
31206;SDS011;17834;52.992;8.856;2023-09-19T10:03:34;9.10;;;2.28;;
31206;SDS011;17834;52.992;8.856;2023-09-19T10:06:04;13.93;;;1.50;;
31206;SDS011;17834;52.992;8.856;2023-09-19T10:09:05;7.82;;;1.10;;
31206;SDS011;17834;52.992;8.856;2023-09-19T10:11:38;5.55;;;1.33;;
31206;SDS011;17834;52.992;8.856;2023-09-19T10:14:05;8.10;;;1.13;;
31206;SDS011;17834;52.992;8.856;2023-09-19T10:16:34;4.43;;;1.25;;
31206;SDS011;17834;52.992;8.856;2023-09-19T10:19:04;9.63;;;1.15;;
31206;SDS011;17834;52.992;8.856;2023-09-19T10:21:31;9.07;;;1.08;;
31206;SDS011;17834;52.992;8.856;2023-09-19T10:24:00;9.98;;;1.35;;
31206;SDS011;17834;52.992;8.856;2023-09-19T10:26:29;4.97;;;1.38;;
31206;SDS011;17834;52.992;8.856;2023-09-19T10:28:56;5.50;;;0.95;;
31206;SDS011;17834;52.992;8.856;2023-09-19T10:31:24;7.75;;;1.50;;
31206;SDS011;17834;52.992;8.856;2023-09-19T10:33:51;8.70;;;1.17;;
31206;SDS011;17834;52.992;8.856;2023-09-19T10:36:20;7.07;;;1.08;;
31206;SDS011;17834;52.992;8.856;2023-09-19T10:38:47;9.02;;;1.63;;
31206;SDS011;17834;52.992;8.856;2023-09-19T10:41:14;5.88;;;1.27;;
31206;SDS011;17834;52.992;8.856;2023-09-19T10:43:39;8.95;;;1.65;;
31206;SDS011;17834;52.992;8.856;2023-09-19T10:46:09;5.80;;;1.65;;
31206;SDS011;17834;52.992;8.856;2023-09-19T10:48:36;12.02;;;1.65;;
31206;SDS011;17834;52.992;8.856;2023-09-19T10:51:06;7.25;;;1.25;;
31206;SDS011;17834;52.992;8.856;2023-09-19T10:53:51;6.03;;;1.20;;
31206;SDS011;17834;52.992;8.856;2023-09-19T10:56:19;5.95;;;1.55;;
31206;SDS011;17834;52.992;8.856;2023-09-19T10:58:46;5.32;;;1.13;;
31206;SDS011;17834;52.992;8.856;2023-09-19T11:01:14;7.05;;;1.55;;
31206;SDS011;17834;52.992;8.856;2023-09-19T11:03:40;8.95;;;1.52;;
31206;SDS011;17834;52.992;8.856;2023-09-19T11:06:15;5.10;;;1.20;;
31206;SDS011;17834;52.992;8.856;2023-09-19T11:14:13;8.50;;;1.50;;
31206;SDS011;17834;52.992;8.856;2023-09-19T11:19:05;6.78;;;1.70;;
31206;SDS011;17834;52.992;8.856;2023-09-19T11:26:40;7.30;;;1.40;;
31206;SDS011;17834;52.992;8.856;2023-09-19T11:29:28;8.68;;;1.15;;
31206;SDS011;17834;52.992;8.856;2023-09-19T11:31:56;8.02;;;1.50;;
31206;SDS011;17834;52.992;8.856;2023-09-19T11:37:05;7.20;;;1.20;;
31206;SDS011;17834;52.992;8.856;2023-09-19T11:42:53;5.30;;;1.13;;
31206;SDS011;17834;52.992;8.856;2023-09-19T11:48:05;5.47;;;1.17;;
31206;SDS011;17834;52.992;8.856;2023-09-19T11:50:32;5.70;;;1.00;;
31206;SDS011;17834;52.992;8.856;2023-09-19T11:53:00;5.90;;;1.50;;
31206;SDS011;17834;52.992;8.856;2023-09-19T11:55:28;5.78;;;1.13;;
31206;SDS011;17834;52.992;8.856;2023-09-19T11:57:57;4.43;;;1.10;;
31206;SDS011;17834;52.992;8.856;2023-09-19T12:00:24;6.97;;;1.73;;
31206;SDS011;17834;52.992;8.856;2023-09-19T12:02:52;5.25;;;1.20;;
31206;SDS011;17834;52.992;8.856;2023-09-19T12:05:27;6.20;;;1.08;;
31206;SDS011;17834;52.992;8.856;2023-09-19T12:07:54;6.60;;;1.65;;
31206;SDS011;17834;52.992;8.856;2023-09-19T12:10:20;5.60;;;1.50;;
31206;SDS011;17834;52.992;8.856;2023-09-19T12:12:48;2.92;;;0.98;;
31206;SDS011;17834;52.992;8.856;2023-09-19T12:15:14;4.10;;;1.58;;
31206;SDS011;17834;52.992;8.856;2023-09-19T12:17:41;4.88;;;1.40;;
31206;SDS011;17834;52.992;8.856;2023-09-19T12:20:08;7.57;;;1.42;;
31206;SDS011;17834;52.992;8.856;2023-09-19T12:22:44;4.07;;;1.50;;
31206;SDS011;17834;52.992;8.856;2023-09-19T12:25:11;4.63;;;1.27;;
31206;SDS011;17834;52.992;8.856;2023-09-19T12:27:41;13.57;;;1.70;;
31206;SDS011;17834;52.992;8.856;2023-09-19T12:30:08;7.95;;;1.52;;
31206;SDS011;17834;52.992;8.856;2023-09-19T12:32:35;3.97;;;1.33;;
31206;SDS011;17834;52.992;8.856;2023-09-19T12:35:01;4.40;;;1.67;;
31206;SDS011;17834;52.992;8.856;2023-09-19T12:37:32;8.15;;;1.50;;
31206;SDS011;17834;52.992;8.856;2023-09-19T12:40:07;4.75;;;1.00;;
31206;SDS011;17834;52.992;8.856;2023-09-19T12:42:42;5.80;;;1.35;;
31206;SDS011;17834;52.992;8.856;2023-09-19T12:45:09;6.15;;;1.35;;
31206;SDS011;17834;52.992;8.856;2023-09-19T12:47:36;3.58;;;1.05;;
31206;SDS011;17834;52.992;8.856;2023-09-19T12:50:05;5.53;;;1.35;;
31206;SDS011;17834;52.992;8.856;2023-09-19T12:52:35;6.63;;;1.38;;
31206;SDS011;17834;52.992;8.856;2023-09-19T12:55:01;5.53;;;1.35;;
31206;SDS011;17834;52.992;8.856;2023-09-19T12:57:28;7.40;;;1.35;;
31206;SDS011;17834;52.992;8.856;2023-09-19T12:59:57;5.80;;;1.30;;
31206;SDS011;17834;52.992;8.856;2023-09-19T13:02:23;4.43;;;1.10;;
31206;SDS011;17834;52.992;8.856;2023-09-19T13:04:54;8.65;;;1.13;;
31206;SDS011;17834;52.992;8.856;2023-09-19T13:07:39;3.72;;;1.30;;
31206;SDS011;17834;52.992;8.856;2023-09-19T13:10:08;5.88;;;1.50;;
31206;SDS011;17834;52.992;8.856;2023-09-19T13:12:35;9.23;;;1.30;;
31206;SDS011;17834;52.992;8.856;2023-09-19T13:15:09;8.05;;;2.03;;
31206;SDS011;17834;52.992;8.856;2023-09-19T13:17:48;6.15;;;1.23;;
31206;SDS011;17834;52.992;8.856;2023-09-19T13:20:24;7.82;;;1.67;;
31206;SDS011;17834;52.992;8.856;2023-09-19T13:22:54;8.73;;;1.40;;
31206;SDS011;17834;52.992;8.856;2023-09-19T13:25:24;7.95;;;1.45;;
31206;SDS011;17834;52.992;8.856;2023-09-19T13:27:54;8.77;;;1.60;;
31206;SDS011;17834;52.992;8.856;2023-09-19T13:30:21;4.97;;;1.05;;
31206;SDS011;17834;52.992;8.856;2023-09-19T13:32:48;4.53;;;0.98;;
31206;SDS011;17834;52.992;8.856;2023-09-19T13:35:14;9.10;;;1.42;;
31206;SDS011;17834;52.992;8.856;2023-09-19T13:37:40;4.20;;;1.15;;
31206;SDS011;17834;52.992;8.856;2023-09-19T13:40:11;5.13;;;1.30;;
31206;SDS011;17834;52.992;8.856;2023-09-19T13:42:37;4.68;;;0.95;;
31206;SDS011;17834;52.992;8.856;2023-09-19T13:45:03;6.72;;;1.40;;
31206;SDS011;17834;52.992;8.856;2023-09-19T13:47:30;4.95;;;1.52;;
31206;SDS011;17834;52.992;8.856;2023-09-19T13:49:56;7.75;;;1.30;;
31206;SDS011;17834;52.992;8.856;2023-09-19T13:52:22;7.20;;;1.40;;
31206;SDS011;17834;52.992;8.856;2023-09-19T13:54:49;3.90;;;1.20;;
31206;SDS011;17834;52.992;8.856;2023-09-19T13:57:16;5.90;;;1.25;;
31206;SDS011;17834;52.992;8.856;2023-09-19T13:59:42;6.88;;;1.42;;
31206;SDS011;17834;52.992;8.856;2023-09-19T14:02:08;5.57;;;1.15;;
31206;SDS011;17834;52.992;8.856;2023-09-19T14:04:34;6.28;;;1.13;;
31206;SDS011;17834;52.992;8.856;2023-09-19T14:07:00;6.25;;;1.30;;
31206;SDS011;17834;52.992;8.856;2023-09-19T14:09:26;7.05;;;1.67;;
31206;SDS011;17834;52.992;8.856;2023-09-19T14:11:52;3.20;;;1.10;;
31206;SDS011;17834;52.992;8.856;2023-09-19T14:14:18;5.75;;;1.27;;
31206;SDS011;17834;52.992;8.856;2023-09-19T14:16:47;7.35;;;1.30;;
31206;SDS011;17834;52.992;8.856;2023-09-19T14:19:13;10.43;;;2.00;;
31206;SDS011;17834;52.992;8.856;2023-09-19T14:21:41;6.65;;;1.42;;
31206;SDS011;17834;52.992;8.856;2023-09-19T14:24:07;4.53;;;1.23;;
31206;SDS011;17834;52.992;8.856;2023-09-19T14:26:37;11.88;;;1.90;;
31206;SDS011;17834;52.992;8.856;2023-09-19T14:29:04;7.43;;;1.25;;
31206;SDS011;17834;52.992;8.856;2023-09-19T14:31:32;8.45;;;1.38;;
31206;SDS011;17834;52.992;8.856;2023-09-19T14:33:58;5.90;;;1.60;;
31206;SDS011;17834;52.992;8.856;2023-09-19T14:36:24;7.97;;;1.67;;
31206;SDS011;17834;52.992;8.856;2023-09-19T14:38:53;6.75;;;1.80;;
31206;SDS011;17834;52.992;8.856;2023-09-19T14:41:19;7.82;;;1.40;;
31206;SDS011;17834;52.992;8.856;2023-09-19T14:43:46;6.93;;;1.40;;
31206;SDS011;17834;52.992;8.856;2023-09-19T14:46:12;6.85;;;1.20;;
31206;SDS011;17834;52.992;8.856;2023-09-19T14:48:39;5.28;;;0.90;;
31206;SDS011;17834;52.992;8.856;2023-09-19T14:51:05;6.10;;;1.30;;
31206;SDS011;17834;52.992;8.856;2023-09-19T14:53:33;12.25;;;1.20;;
31206;SDS011;17834;52.992;8.856;2023-09-19T14:56:02;8.07;;;1.77;;
31206;SDS011;17834;52.992;8.856;2023-09-19T14:58:29;2.85;;;1.02;;
31206;SDS011;17834;52.992;8.856;2023-09-19T15:01:05;2.78;;;0.82;;
31206;SDS011;17834;52.992;8.856;2023-09-19T15:03:31;3.63;;;1.00;;
31206;SDS011;17834;52.992;8.856;2023-09-19T15:06:04;7.35;;;1.65;;
31206;SDS011;17834;52.992;8.856;2023-09-19T15:08:30;5.40;;;1.33;;
31206;SDS011;17834;52.992;8.856;2023-09-19T15:10:57;4.95;;;1.05;;
31206;SDS011;17834;52.992;8.856;2023-09-19T15:13:25;6.00;;;1.10;;
31206;SDS011;17834;52.992;8.856;2023-09-19T15:15:58;4.45;;;1.40;;
31206;SDS011;17834;52.992;8.856;2023-09-19T15:18:24;10.15;;;1.67;;
31206;SDS011;17834;52.992;8.856;2023-09-19T15:20:50;9.38;;;1.23;;
31206;SDS011;17834;52.992;8.856;2023-09-19T15:23:16;4.18;;;1.17;;
31206;SDS011;17834;52.992;8.856;2023-09-19T15:25:50;3.60;;;1.27;;
31206;SDS011;17834;52.992;8.856;2023-09-19T15:28:16;7.80;;;1.38;;
31206;SDS011;17834;52.992;8.856;2023-09-19T15:30:42;5.65;;;0.98;;
31206;SDS011;17834;52.992;8.856;2023-09-19T15:33:08;3.80;;;1.65;;
31206;SDS011;17834;52.992;8.856;2023-09-19T15:35:33;4.82;;;1.05;;
31206;SDS011;17834;52.992;8.856;2023-09-19T15:38:02;4.30;;;1.00;;
31206;SDS011;17834;52.992;8.856;2023-09-19T15:40:27;3.75;;;1.05;;
31206;SDS011;17834;52.992;8.856;2023-09-19T15:42:54;5.15;;;1.13;;